sensor_id;sensor_type;location;lat;lon;timestamp;P1;durP1;ratioP1;P2;durP2;ratioP2
54999;SDS011;40897;47.998;18.856;2024-01-10T00:00:00;13.9;;;12.3;;
54999;SDS011;40897;47.998;18.856;2024-01-10T00:05:00;11.5;;;10.4;;
54999;SDS011;40897;47.998;18.856;2024-01-10T00:10:00;9.0;;;8.3;;
54999;SDS011;40897;47.998;18.856;2024-01-10T00:15:00;9.7;;;8.9;;
54999;SDS011;40897;47.998;18.856;2024-01-10T00:20:00;10.6;;;9.9;;
54999;SDS011;40897;47.998;18.856;2024-01-10T00:25:00;11.9;;;11.1;;
54999;SDS011;40897;47.998;18.856;2024-01-10T00:30:00;9.3;;;8.7;;
54999;SDS011;40897;47.998;18.856;2024-01-10T00:35:00;9.9;;;9.1;;
54999;SDS011;40897;47.998;18.856;2024-01-10T00:40:00;13.6;;;12.1;;
54999;SDS011;40897;47.998;18.856;2024-01-10T00:45:00;12.5;;;10.9;;
54999;SDS011;40897;47.998;18.856;2024-01-10T00:50:00;8.7;;;8.1;;
54999;SDS011;40897;47.998;18.856;2024-01-10T00:55:00;10.4;;;9.5;;
54999;SDS011;40897;47.998;18.856;2024-01-10T01:00:00;12.1;;;10.8;;
54999;SDS011;40897;47.998;18.856;2024-01-10T01:05:00;11.6;;;10.4;;
54999;SDS011;40897;47.998;18.856;2024-01-10T01:10:00;10.8;;;9.6;;
54999;SDS011;40897;47.998;18.856;2024-01-10T01:15:00;11.9;;;10.7;;
54999;SDS011;40897;47.998;18.856;2024-01-10T01:20:00;13.2;;;11.6;;
54999;SDS011;40897;47.998;18.856;2024-01-10T01:25:00;11.6;;;10.7;;
54999;SDS011;40897;47.998;18.856;2024-01-10T01:30:00;10.5;;;9.6;;
54999;SDS011;40897;47.998;18.856;2024-01-10T01:35:00;11.4;;;10.4;;
54999;SDS011;40897;47.998;18.856;2024-01-10T01:40:01;10.6;;;9.7;;
54999;SDS011;40897;47.998;18.856;2024-01-10T01:45:00;11.5;;;10.5;;
54999;SDS011;40897;47.998;18.856;2024-01-10T01:50:00;10.5;;;9.4;;
54999;SDS011;40897;47.998;18.856;2024-01-10T01:55:00;11.0;;;10.1;;
54999;SDS011;40897;47.998;18.856;2024-01-10T02:00:00;12.4;;;11.2;;
54999;SDS011;40897;47.998;18.856;2024-01-10T02:05:00;12.6;;;11.2;;
54999;SDS011;40897;47.998;18.856;2024-01-10T02:10:00;13.5;;;11.9;;
54999;SDS011;40897;47.998;18.856;2024-01-10T02:15:00;12.7;;;11.5;;
54999;SDS011;40897;47.998;18.856;2024-01-10T02:20:08;14.6;;;13.3;;
54999;SDS011;40897;47.998;18.856;2024-01-10T02:25:00;13.0;;;12.1;;
54999;SDS011;40897;47.998;18.856;2024-01-10T02:30:00;13.6;;;12.5;;
54999;SDS011;40897;47.998;18.856;2024-01-10T02:35:00;13.7;;;12.5;;
54999;SDS011;40897;47.998;18.856;2024-01-10T02:40:00;17.1;;;14.4;;
54999;SDS011;40897;47.998;18.856;2024-01-10T02:45:00;15.4;;;13.9;;
54999;SDS011;40897;47.998;18.856;2024-01-10T02:50:00;17.2;;;15.0;;
54999;SDS011;40897;47.998;18.856;2024-01-10T02:55:00;17.2;;;14.8;;
54999;SDS011;40897;47.998;18.856;2024-01-10T03:00:00;16.4;;;14.2;;
54999;SDS011;40897;47.998;18.856;2024-01-10T03:05:00;15.2;;;13.7;;
54999;SDS011;40897;47.998;18.856;2024-01-10T03:10:00;13.5;;;12.0;;
54999;SDS011;40897;47.998;18.856;2024-01-10T03:15:00;14.4;;;13.1;;
54999;SDS011;40897;47.998;18.856;2024-01-10T03:20:00;15.4;;;13.9;;
54999;SDS011;40897;47.998;18.856;2024-01-10T03:25:00;14.5;;;12.9;;
54999;SDS011;40897;47.998;18.856;2024-01-10T03:30:00;12.7;;;11.8;;
54999;SDS011;40897;47.998;18.856;2024-01-10T03:35:00;12.8;;;11.9;;
54999;SDS011;40897;47.998;18.856;2024-01-10T03:40:00;14.1;;;12.9;;
54999;SDS011;40897;47.998;18.856;2024-01-10T03:45:00;12.4;;;11.6;;
54999;SDS011;40897;47.998;18.856;2024-01-10T03:50:00;14.3;;;13.2;;
54999;SDS011;40897;47.998;18.856;2024-01-10T03:55:00;12.6;;;11.6;;
54999;SDS011;40897;47.998;18.856;2024-01-10T04:00:00;12.3;;;11.3;;
54999;SDS011;40897;47.998;18.856;2024-01-10T04:05:00;12.0;;;11.1;;
54999;SDS011;40897;47.998;18.856;2024-01-10T04:10:00;12.7;;;12.1;;
54999;SDS011;40897;47.998;18.856;2024-01-10T04:15:00;11.9;;;11.3;;
54999;SDS011;40897;47.998;18.856;2024-01-10T04:20:00;11.1;;;10.4;;
54999;SDS011;40897;47.998;18.856;2024-01-10T04:25:00;10.7;;;10.0;;
54999;SDS011;40897;47.998;18.856;2024-01-10T04:30:00;11.1;;;10.3;;
54999;SDS011;40897;47.998;18.856;2024-01-10T04:35:00;11.7;;;10.7;;
54999;SDS011;40897;47.998;18.856;2024-01-10T04:40:00;10.9;;;10.0;;
54999;SDS011;40897;47.998;18.856;2024-01-10T04:45:00;11.6;;;10.6;;
54999;SDS011;40897;47.998;18.856;2024-01-10T04:50:00;11.7;;;10.9;;
54999;SDS011;40897;47.998;18.856;2024-01-10T04:55:00;11.5;;;10.8;;
54999;SDS011;40897;47.998;18.856;2024-01-10T05:00:00;12.2;;;11.5;;
54999;SDS011;40897;47.998;18.856;2024-01-10T05:05:00;11.2;;;10.6;;
54999;SDS011;40897;47.998;18.856;2024-01-10T05:10:00;12.2;;;11.7;;
54999;SDS011;40897;47.998;18.856;2024-01-10T05:15:00;11.2;;;10.5;;
54999;SDS011;40897;47.998;18.856;2024-01-10T05:20:00;11.3;;;10.8;;
54999;SDS011;40897;47.998;18.856;2024-01-10T05:25:00;10.6;;;10.4;;
54999;SDS011;40897;47.998;18.856;2024-01-10T05:30:00;11.4;;;10.8;;
54999;SDS011;40897;47.998;18.856;2024-01-10T05:35:00;11.1;;;11.0;;
54999;SDS011;40897;47.998;18.856;2024-01-10T05:40:00;22.0;;;19.6;;
54999;SDS011;40897;47.998;18.856;2024-01-10T05:45:00;22.9;;;19.2;;
54999;SDS011;40897;47.998;18.856;2024-01-10T05:50:00;18.7;;;16.7;;
54999;SDS011;40897;47.998;18.856;2024-01-10T05:55:00;17.1;;;15.2;;
54999;SDS011;40897;47.998;18.856;2024-01-10T06:00:00;15.5;;;13.8;;
54999;SDS011;40897;47.998;18.856;2024-01-10T06:05:00;14.7;;;13.4;;
54999;SDS011;40897;47.998;18.856;2024-01-10T06:10:00;13.2;;;12.0;;
54999;SDS011;40897;47.998;18.856;2024-01-10T06:15:00;13.3;;;12.2;;
54999;SDS011;40897;47.998;18.856;2024-01-10T06:20:00;14.7;;;13.2;;
54999;SDS011;40897;47.998;18.856;2024-01-10T06:25:00;14.6;;;13.0;;
54999;SDS011;40897;47.998;18.856;2024-01-10T06:30:00;20.3;;;17.9;;
54999;SDS011;40897;47.998;18.856;2024-01-10T06:35:00;29.1;;;24.3;;
54999;SDS011;40897;47.998;18.856;2024-01-10T06:40:01;25.6;;;21.7;;
54999;SDS011;40897;47.998;18.856;2024-01-10T06:45:00;21.5;;;18.4;;
54999;SDS011;40897;47.998;18.856;2024-01-10T06:50:00;18.7;;;16.1;;
54999;SDS011;40897;47.998;18.856;2024-01-10T06:55:00;17.6;;;15.8;;
54999;SDS011;40897;47.998;18.856;2024-01-10T07:00:00;15.2;;;13.6;;
54999;SDS011;40897;47.998;18.856;2024-01-10T07:05:00;25.2;;;21.2;;
54999;SDS011;40897;47.998;18.856;2024-01-10T07:10:00;26.0;;;21.5;;
54999;SDS011;40897;47.998;18.856;2024-01-10T07:15:00;24.6;;;20.4;;
54999;SDS011;40897;47.998;18.856;2024-01-10T07:20:00;33.2;;;27.5;;
54999;SDS011;40897;47.998;18.856;2024-01-10T07:25:00;92.0;;;71.1;;
54999;SDS011;40897;47.998;18.856;2024-01-10T07:30:00;108.2;;;85.4;;
54999;SDS011;40897;47.998;18.856;2024-01-10T07:35:00;54.0;;;44.5;;
54999;SDS011;40897;47.998;18.856;2024-01-10T07:40:00;68.1;;;52.6;;
54999;SDS011;40897;47.998;18.856;2024-01-10T07:45:00;61.8;;;51.8;;
54999;SDS011;40897;47.998;18.856;2024-01-10T07:50:00;78.3;;;68.8;;
54999;SDS011;40897;47.998;18.856;2024-01-10T07:55:00;69.3;;;56.1;;
54999;SDS011;40897;47.998;18.856;2024-01-10T08:00:00;56.2;;;47.2;;
54999;SDS011;40897;47.998;18.856;2024-01-10T08:05:00;37.4;;;37.0;;
54999;SDS011;40897;47.998;18.856;2024-01-10T08:10:00;42.7;;;41.2;;
54999;SDS011;40897;47.998;18.856;2024-01-10T08:15:00;89.7;;;82.3;;
54999;SDS011;40897;47.998;18.856;2024-01-10T08:20:00;42.5;;;40.1;;
54999;SDS011;40897;47.998;18.856;2024-01-10T08:25:00;35.3;;;33.6;;
54999;SDS011;40897;47.998;18.856;2024-01-10T08:30:00;32.1;;;31.0;;
54999;SDS011;40897;47.998;18.856;2024-01-10T08:35:00;26.8;;;25.6;;
54999;SDS011;40897;47.998;18.856;2024-01-10T08:40:00;31.2;;;29.6;;
54999;SDS011;40897;47.998;18.856;2024-01-10T08:45:00;24.6;;;23.7;;
54999;SDS011;40897;47.998;18.856;2024-01-10T08:50:00;27.7;;;27.0;;
54999;SDS011;40897;47.998;18.856;2024-01-10T08:55:00;19.1;;;18.5;;
54999;SDS011;40897;47.998;18.856;2024-01-10T09:00:00;15.1;;;14.7;;
54999;SDS011;40897;47.998;18.856;2024-01-10T09:05:00;12.2;;;11.6;;
54999;SDS011;40897;47.998;18.856;2024-01-10T09:10:00;13.6;;;12.7;;
54999;SDS011;40897;47.998;18.856;2024-01-10T09:15:00;15.0;;;14.4;;
54999;SDS011;40897;47.998;18.856;2024-01-10T09:20:00;13.1;;;12.5;;
54999;SDS011;40897;47.998;18.856;2024-01-10T09:25:00;13.3;;;12.8;;
54999;SDS011;40897;47.998;18.856;2024-01-10T09:30:00;14.3;;;13.6;;
54999;SDS011;40897;47.998;18.856;2024-01-10T09:35:00;19.9;;;18.1;;
54999;SDS011;40897;47.998;18.856;2024-01-10T09:40:00;15.3;;;14.4;;
54999;SDS011;40897;47.998;18.856;2024-01-10T09:45:00;14.7;;;13.9;;
54999;SDS011;40897;47.998;18.856;2024-01-10T09:50:00;14.9;;;14.0;;
54999;SDS011;40897;47.998;18.856;2024-01-10T09:55:00;17.3;;;15.3;;
54999;SDS011;40897;47.998;18.856;2024-01-10T10:00:00;26.4;;;22.5;;
54999;SDS011;40897;47.998;18.856;2024-01-10T10:05:02;13.3;;;12.9;;
54999;SDS011;40897;47.998;18.856;2024-01-10T10:10:00;14.2;;;13.5;;
54999;SDS011;40897;47.998;18.856;2024-01-10T10:15:06;15.4;;;14.8;;
54999;SDS011;40897;47.998;18.856;2024-01-10T10:20:04;16.9;;;16.2;;
54999;SDS011;40897;47.998;18.856;2024-01-10T10:25:00;14.7;;;13.9;;
54999;SDS011;40897;47.998;18.856;2024-01-10T10:30:00;11.0;;;10.5;;
54999;SDS011;40897;47.998;18.856;2024-01-10T10:35:00;60.5;;;46.8;;
54999;SDS011;40897;47.998;18.856;2024-01-10T10:40:00;9.9;;;9.4;;
54999;SDS011;40897;47.998;18.856;2024-01-10T10:45:02;29.4;;;22.0;;
54999;SDS011;40897;47.998;18.856;2024-01-10T10:50:00;9.3;;;8.9;;
54999;SDS011;40897;47.998;18.856;2024-01-10T10:55:00;28.5;;;22.3;;
54999;SDS011;40897;47.998;18.856;2024-01-10T11:00:00;10.4;;;10.1;;
54999;SDS011;40897;47.998;18.856;2024-01-10T11:05:00;16.0;;;15.1;;
54999;SDS011;40897;47.998;18.856;2024-01-10T11:10:00;10.2;;;9.5;;
54999;SDS011;40897;47.998;18.856;2024-01-10T11:25:00;11.3;;;10.8;;
54999;SDS011;40897;47.998;18.856;2024-01-10T11:30:00;12.4;;;11.6;;
54999;SDS011;40897;47.998;18.856;2024-01-10T11:35:00;16.5;;;15.3;;
54999;SDS011;40897;47.998;18.856;2024-01-10T11:40:00;13.0;;;12.0;;
54999;SDS011;40897;47.998;18.856;2024-01-10T11:45:00;11.8;;;11.2;;
54999;SDS011;40897;47.998;18.856;2024-01-10T11:50:01;13.9;;;12.9;;
54999;SDS011;40897;47.998;18.856;2024-01-10T11:55:00;20.2;;;17.6;;
54999;SDS011;40897;47.998;18.856;2024-01-10T12:00:00;11.6;;;11.2;;
54999;SDS011;40897;47.998;18.856;2024-01-10T12:05:00;13.0;;;12.4;;
54999;SDS011;40897;47.998;18.856;2024-01-10T12:10:00;13.1;;;12.6;;
54999;SDS011;40897;47.998;18.856;2024-01-10T12:15:00;13.1;;;12.1;;
54999;SDS011;40897;47.998;18.856;2024-01-10T12:20:00;17.5;;;15.9;;
54999;SDS011;40897;47.998;18.856;2024-01-10T12:25:07;12.5;;;12.0;;
54999;SDS011;40897;47.998;18.856;2024-01-10T12:30:00;13.5;;;13.1;;
54999;SDS011;40897;47.998;18.856;2024-01-10T12:35:01;14.6;;;14.3;;
54999;SDS011;40897;47.998;18.856;2024-01-10T12:40:00;15.9;;;15.3;;
54999;SDS011;40897;47.998;18.856;2024-01-10T12:45:00;15.4;;;14.8;;
54999;SDS011;40897;47.998;18.856;2024-01-10T12:50:00;16.5;;;15.9;;
54999;SDS011;40897;47.998;18.856;2024-01-10T12:55:00;17.3;;;16.4;;
54999;SDS011;40897;47.998;18.856;2024-01-10T13:00:00;14.2;;;13.7;;
54999;SDS011;40897;47.998;18.856;2024-01-10T13:05:00;14.6;;;13.9;;
54999;SDS011;40897;47.998;18.856;2024-01-10T13:10:00;15.6;;;14.9;;
54999;SDS011;40897;47.998;18.856;2024-01-10T13:15:00;14.7;;;14.0;;
54999;SDS011;40897;47.998;18.856;2024-01-10T13:20:00;15.8;;;15.1;;
54999;SDS011;40897;47.998;18.856;2024-01-10T13:25:00;15.7;;;15.3;;
54999;SDS011;40897;47.998;18.856;2024-01-10T13:30:00;29.2;;;23.0;;
54999;SDS011;40897;47.998;18.856;2024-01-10T13:35:00;20.3;;;16.5;;
54999;SDS011;40897;47.998;18.856;2024-01-10T13:40:00;12.8;;;12.5;;
54999;SDS011;40897;47.998;18.856;2024-01-10T13:45:00;12.6;;;12.1;;
54999;SDS011;40897;47.998;18.856;2024-01-10T13:50:00;141.3;;;94.7;;
54999;SDS011;40897;47.998;18.856;2024-01-10T13:55:00;37.8;;;29.6;;
54999;SDS011;40897;47.998;18.856;2024-01-10T14:00:00;13.3;;;12.5;;
54999;SDS011;40897;47.998;18.856;2024-01-10T14:05:00;14.5;;;14.0;;
54999;SDS011;40897;47.998;18.856;2024-01-10T14:10:00;13.4;;;12.8;;
54999;SDS011;40897;47.998;18.856;2024-01-10T14:15:00;24.0;;;19.3;;
54999;SDS011;40897;47.998;18.856;2024-01-10T14:20:00;12.8;;;12.1;;
54999;SDS011;40897;47.998;18.856;2024-01-10T14:25:00;12.0;;;11.7;;
54999;SDS011;40897;47.998;18.856;2024-01-10T14:30:00;12.3;;;11.7;;
54999;SDS011;40897;47.998;18.856;2024-01-10T14:35:00;104.1;;;78.2;;
54999;SDS011;40897;47.998;18.856;2024-01-10T14:40:00;158.8;;;108.1;;
54999;SDS011;40897;47.998;18.856;2024-01-10T14:45:00;13.6;;;12.5;;
54999;SDS011;40897;47.998;18.856;2024-01-10T14:50:00;12.9;;;12.5;;
54999;SDS011;40897;47.998;18.856;2024-01-10T14:55:00;13.0;;;12.5;;
54999;SDS011;40897;47.998;18.856;2024-01-10T15:00:00;15.1;;;14.2;;
54999;SDS011;40897;47.998;18.856;2024-01-10T15:05:01;34.1;;;28.5;;
54999;SDS011;40897;47.998;18.856;2024-01-10T15:10:00;31.8;;;27.3;;
54999;SDS011;40897;47.998;18.856;2024-01-10T15:15:00;53.3;;;45.6;;
54999;SDS011;40897;47.998;18.856;2024-01-10T15:20:00;150.7;;;107.5;;
54999;SDS011;40897;47.998;18.856;2024-01-10T15:25:00;90.8;;;72.1;;
54999;SDS011;40897;47.998;18.856;2024-01-10T15:30:00;119.2;;;90.2;;
54999;SDS011;40897;47.998;18.856;2024-01-10T15:35:00;409.8;;;266.1;;
54999;SDS011;40897;47.998;18.856;2024-01-10T15:40:00;86.4;;;64.9;;
54999;SDS011;40897;47.998;18.856;2024-01-10T15:45:00;40.4;;;35.5;;
54999;SDS011;40897;47.998;18.856;2024-01-10T15:50:00;91.9;;;68.6;;
54999;SDS011;40897;47.998;18.856;2024-01-10T15:55:00;151.3;;;106.3;;
54999;SDS011;40897;47.998;18.856;2024-01-10T16:00:00;137.5;;;94.2;;
54999;SDS011;40897;47.998;18.856;2024-01-10T16:05:01;18.4;;;17.1;;
54999;SDS011;40897;47.998;18.856;2024-01-10T16:10:00;111.0;;;80.3;;
54999;SDS011;40897;47.998;18.856;2024-01-10T16:15:00;101.3;;;74.7;;
54999;SDS011;40897;47.998;18.856;2024-01-10T16:20:00;73.9;;;59.2;;
54999;SDS011;40897;47.998;18.856;2024-01-10T16:25:00;100.5;;;75.7;;
54999;SDS011;40897;47.998;18.856;2024-01-10T16:30:00;75.2;;;58.1;;
54999;SDS011;40897;47.998;18.856;2024-01-10T16:35:02;95.3;;;72.9;;
54999;SDS011;40897;47.998;18.856;2024-01-10T16:40:00;42.4;;;35.9;;
54999;SDS011;40897;47.998;18.856;2024-01-10T16:45:00;31.1;;;28.5;;
54999;SDS011;40897;47.998;18.856;2024-01-10T16:50:00;205.9;;;149.4;;
54999;SDS011;40897;47.998;18.856;2024-01-10T16:55:00;154.7;;;110.1;;
54999;SDS011;40897;47.998;18.856;2024-01-10T17:00:00;186.5;;;130.7;;
54999;SDS011;40897;47.998;18.856;2024-01-10T17:05:00;214.7;;;149.0;;
54999;SDS011;40897;47.998;18.856;2024-01-10T17:10:00;79.3;;;62.6;;
54999;SDS011;40897;47.998;18.856;2024-01-10T17:15:00;132.1;;;98.5;;
54999;SDS011;40897;47.998;18.856;2024-01-10T17:20:00;166.2;;;125.0;;
54999;SDS011;40897;47.998;18.856;2024-01-10T17:25:00;96.6;;;77.1;;
54999;SDS011;40897;47.998;18.856;2024-01-10T17:30:00;92.7;;;71.9;;
54999;SDS011;40897;47.998;18.856;2024-01-10T17:35:00;185.3;;;135.5;;
54999;SDS011;40897;47.998;18.856;2024-01-10T17:40:00;113.7;;;88.9;;
54999;SDS011;40897;47.998;18.856;2024-01-10T17:45:00;66.5;;;57.6;;
54999;SDS011;40897;47.998;18.856;2024-01-10T17:50:00;59.4;;;51.4;;
54999;SDS011;40897;47.998;18.856;2024-01-10T17:55:00;58.3;;;51.3;;
54999;SDS011;40897;47.998;18.856;2024-01-10T18:00:00;60.7;;;53.0;;
54999;SDS011;40897;47.998;18.856;2024-01-10T18:05:00;48.9;;;45.6;;
54999;SDS011;40897;47.998;18.856;2024-01-10T18:10:00;50.6;;;46.6;;
54999;SDS011;40897;47.998;18.856;2024-01-10T18:15:00;39.8;;;37.3;;
54999;SDS011;40897;47.998;18.856;2024-01-10T18:20:00;33.4;;;31.8;;
54999;SDS011;40897;47.998;18.856;2024-01-10T18:25:00;30.8;;;29.1;;
54999;SDS011;40897;47.998;18.856;2024-01-10T18:30:00;26.9;;;26.0;;
54999;SDS011;40897;47.998;18.856;2024-01-10T18:35:00;19.7;;;18.8;;
54999;SDS011;40897;47.998;18.856;2024-01-10T18:40:00;31.9;;;30.5;;
54999;SDS011;40897;47.998;18.856;2024-01-10T18:45:00;27.5;;;25.6;;
54999;SDS011;40897;47.998;18.856;2024-01-10T18:50:00;27.8;;;26.3;;
54999;SDS011;40897;47.998;18.856;2024-01-10T18:55:00;24.5;;;23.5;;
54999;SDS011;40897;47.998;18.856;2024-01-10T19:00:00;22.1;;;20.9;;
54999;SDS011;40897;47.998;18.856;2024-01-10T19:05:00;39.4;;;35.7;;
54999;SDS011;40897;47.998;18.856;2024-01-10T19:10:00;48.8;;;44.9;;
54999;SDS011;40897;47.998;18.856;2024-01-10T19:15:00;75.0;;;66.6;;
54999;SDS011;40897;47.998;18.856;2024-01-10T19:20:00;82.1;;;75.5;;
54999;SDS011;40897;47.998;18.856;2024-01-10T19:25:00;117.3;;;110.3;;
54999;SDS011;40897;47.998;18.856;2024-01-10T19:30:00;97.6;;;90.6;;
54999;SDS011;40897;47.998;18.856;2024-01-10T19:35:00;55.8;;;52.8;;
54999;SDS011;40897;47.998;18.856;2024-01-10T19:40:00;63.3;;;61.1;;
54999;SDS011;40897;47.998;18.856;2024-01-10T19:45:00;57.2;;;54.1;;
54999;SDS011;40897;47.998;18.856;2024-01-10T19:50:00;42.8;;;42.0;;
54999;SDS011;40897;47.998;18.856;2024-01-10T19:55:00;33.4;;;32.3;;
54999;SDS011;40897;47.998;18.856;2024-01-10T20:00:00;28.8;;;28.3;;
54999;SDS011;40897;47.998;18.856;2024-01-10T20:05:00;34.9;;;32.7;;
54999;SDS011;40897;47.998;18.856;2024-01-10T20:10:00;33.0;;;31.5;;
54999;SDS011;40897;47.998;18.856;2024-01-10T20:15:00;39.0;;;36.9;;
54999;SDS011;40897;47.998;18.856;2024-01-10T20:20:00;41.2;;;37.9;;
54999;SDS011;40897;47.998;18.856;2024-01-10T20:25:00;40.3;;;37.2;;
54999;SDS011;40897;47.998;18.856;2024-01-10T20:30:00;34.1;;;31.7;;
54999;SDS011;40897;47.998;18.856;2024-01-10T20:35:00;29.8;;;27.9;;
54999;SDS011;40897;47.998;18.856;2024-01-10T20:40:00;28.2;;;26.7;;
54999;SDS011;40897;47.998;18.856;2024-01-10T20:45:00;20.9;;;19.8;;
54999;SDS011;40897;47.998;18.856;2024-01-10T20:50:00;20.9;;;20.2;;
54999;SDS011;40897;47.998;18.856;2024-01-10T20:55:00;17.7;;;17.3;;
54999;SDS011;40897;47.998;18.856;2024-01-10T21:00:00;18.1;;;17.4;;
54999;SDS011;40897;47.998;18.856;2024-01-10T21:05:00;18.6;;;17.7;;
54999;SDS011;40897;47.998;18.856;2024-01-10T21:10:00;20.3;;;19.5;;
54999;SDS011;40897;47.998;18.856;2024-01-10T21:15:00;19.0;;;17.9;;
54999;SDS011;40897;47.998;18.856;2024-01-10T21:20:00;18.8;;;17.5;;
54999;SDS011;40897;47.998;18.856;2024-01-10T21:25:00;16.9;;;16.0;;
54999;SDS011;40897;47.998;18.856;2024-01-10T21:30:00;14.6;;;14.1;;
54999;SDS011;40897;47.998;18.856;2024-01-10T21:35:00;16.7;;;15.8;;
54999;SDS011;40897;47.998;18.856;2024-01-10T21:40:00;17.7;;;16.6;;
54999;SDS011;40897;47.998;18.856;2024-01-10T21:45:00;17.7;;;16.8;;
54999;SDS011;40897;47.998;18.856;2024-01-10T21:50:00;17.2;;;16.2;;
54999;SDS011;40897;47.998;18.856;2024-01-10T21:55:00;18.1;;;17.3;;
54999;SDS011;40897;47.998;18.856;2024-01-10T22:00:00;19.8;;;19.0;;
54999;SDS011;40897;47.998;18.856;2024-01-10T22:05:00;19.1;;;18.1;;
54999;SDS011;40897;47.998;18.856;2024-01-10T22:10:00;19.1;;;18.1;;
54999;SDS011;40897;47.998;18.856;2024-01-10T22:15:00;16.4;;;15.6;;
54999;SDS011;40897;47.998;18.856;2024-01-10T22:20:00;15.8;;;15.1;;
54999;SDS011;40897;47.998;18.856;2024-01-10T22:25:00;16.2;;;15.4;;
54999;SDS011;40897;47.998;18.856;2024-01-10T22:30:00;13.6;;;13.2;;
54999;SDS011;40897;47.998;18.856;2024-01-10T22:35:00;14.0;;;13.3;;
54999;SDS011;40897;47.998;18.856;2024-01-10T22:40:00;13.5;;;13.1;;
54999;SDS011;40897;47.998;18.856;2024-01-10T22:45:00;13.2;;;12.7;;
54999;SDS011;40897;47.998;18.856;2024-01-10T22:50:00;14.6;;;13.8;;
54999;SDS011;40897;47.998;18.856;2024-01-10T22:55:00;15.4;;;14.4;;
54999;SDS011;40897;47.998;18.856;2024-01-10T23:00:00;13.4;;;12.9;;
54999;SDS011;40897;47.998;18.856;2024-01-10T23:05:00;15.0;;;14.0;;
54999;SDS011;40897;47.998;18.856;2024-01-10T23:10:00;13.3;;;12.6;;
54999;SDS011;40897;47.998;18.856;2024-01-10T23:15:00;14.0;;;13.4;;
54999;SDS011;40897;47.998;18.856;2024-01-10T23:20:00;14.4;;;13.7;;
54999;SDS011;40897;47.998;18.856;2024-01-10T23:25:00;15.4;;;14.6;;
54999;SDS011;40897;47.998;18.856;2024-01-10T23:30:00;23.3;;;22.7;;
54999;SDS011;40897;47.998;18.856;2024-01-10T23:35:00;24.4;;;24.4;;
54999;SDS011;40897;47.998;18.856;2024-01-10T23:40:00;21.6;;;21.1;;
54999;SDS011;40897;47.998;18.856;2024-01-10T23:45:00;34.5;;;32.3;;
54999;SDS011;40897;47.998;18.856;2024-01-10T23:50:00;39.1;;;35.8;;
54999;SDS011;40897;47.998;18.856;2024-01-10T23:55:00;27.6;;;25.5;;
